sensor_id;sensor_type;location;lat;lon;timestamp;pressure;altitude;pressure_sealevel;temperature;humidity
20622;BME280;10470;42.670;23.354;2023-04-15T00:01:01;94041.22;;;8.64;100.00
20622;BME280;10470;42.670;23.354;2023-04-15T00:03:26;94050.56;;;8.72;100.00
20622;BME280;10470;42.670;23.354;2023-04-15T00:05:52;94056.31;;;8.74;100.00
20622;BME280;10470;42.670;23.354;2023-04-15T00:08:18;94059.16;;;8.71;100.00
20622;BME280;10470;42.670;23.354;2023-04-15T00:10:44;94083.72;;;8.40;100.00
20622;BME280;10470;42.670;23.354;2023-04-15T00:13:11;94095.56;;;8.24;100.00
20622;BME280;10470;42.670;23.354;2023-04-15T00:15:36;94084.50;;;8.49;100.00
20622;BME280;10470;42.670;23.354;2023-04-15T00:18:02;94069.56;;;8.82;100.00
20622;BME280;10470;42.670;23.354;2023-04-15T00:20:28;94069.09;;;9.11;100.00
20622;BME280;10470;42.670;23.354;2023-04-15T00:22:54;94080.72;;;9.11;100.00
20622;BME280;10470;42.670;23.354;2023-04-15T00:25:19;94070.19;;;8.95;100.00
20622;BME280;10470;42.670;23.354;2023-04-15T00:27:45;94082.66;;;9.20;100.00
20622;BME280;10470;42.670;23.354;2023-04-15T00:30:10;94067.09;;;9.21;100.00
20622;BME280;10470;42.670;23.354;2023-04-15T00:32:36;94066.06;;;9.18;100.00
20622;BME280;10470;42.670;23.354;2023-04-15T00:35:01;94056.09;;;9.15;100.00
20622;BME280;10470;42.670;23.354;2023-04-15T00:37:28;94058.78;;;9.33;100.00
20622;BME280;10470;42.670;23.354;2023-04-15T00:39:53;94067.88;;;9.21;100.00
20622;BME280;10470;42.670;23.354;2023-04-15T00:42:19;94059.25;;;9.23;100.00
20622;BME280;10470;42.670;23.354;2023-04-15T00:44:46;94073.91;;;9.25;100.00
20622;BME280;10470;42.670;23.354;2023-04-15T00:47:11;94069.25;;;9.07;100.00
20622;BME280;10470;42.670;23.354;2023-04-15T00:49:37;94080.41;;;9.18;100.00
20622;BME280;10470;42.670;23.354;2023-04-15T00:52:03;94084.50;;;9.14;100.00
20622;BME280;10470;42.670;23.354;2023-04-15T00:54:28;94082.25;;;8.94;100.00
20622;BME280;10470;42.670;23.354;2023-04-15T00:56:54;94067.91;;;8.93;100.00
20622;BME280;10470;42.670;23.354;2023-04-15T00:59:20;94074.22;;;9.00;100.00
20622;BME280;10470;42.670;23.354;2023-04-15T01:01:46;94076.06;;;8.93;100.00
20622;BME280;10470;42.670;23.354;2023-04-15T01:04:11;94079.53;;;8.85;100.00
20622;BME280;10470;42.670;23.354;2023-04-15T01:06:37;94081.63;;;8.99;100.00
20622;BME280;10470;42.670;23.354;2023-04-15T01:09:03;94081.19;;;8.91;100.00
20622;BME280;10470;42.670;23.354;2023-04-15T01:11:29;94077.13;;;8.78;100.00
20622;BME280;10470;42.670;23.354;2023-04-15T01:13:58;94077.56;;;8.85;100.00
20622;BME280;10470;42.670;23.354;2023-04-15T01:16:23;94082.09;;;8.88;100.00
20622;BME280;10470;42.670;23.354;2023-04-15T01:18:49;94065.34;;;8.90;100.00
20622;BME280;10470;42.670;23.354;2023-04-15T01:21:14;94074.69;;;8.89;100.00
20622;BME280;10470;42.670;23.354;2023-04-15T01:23:40;94080.75;;;8.93;100.00
20622;BME280;10470;42.670;23.354;2023-04-15T01:26:06;94072.91;;;8.95;100.00
20622;BME280;10470;42.670;23.354;2023-04-15T01:28:33;94070.75;;;8.99;100.00
20622;BME280;10470;42.670;23.354;2023-04-15T01:31:09;94061.56;;;9.06;100.00
20622;BME280;10470;42.670;23.354;2023-04-15T01:33:36;94052.06;;;8.83;100.00
20622;BME280;10470;42.670;23.354;2023-04-15T01:36:02;94056.75;;;8.82;100.00
20622;BME280;10470;42.670;23.354;2023-04-15T01:38:28;94053.13;;;8.76;100.00
20622;BME280;10470;42.670;23.354;2023-04-15T01:40:54;94064.13;;;8.82;100.00
20622;BME280;10470;42.670;23.354;2023-04-15T01:43:19;94068.19;;;8.86;100.00
20622;BME280;10470;42.670;23.354;2023-04-15T01:45:45;94071.22;;;8.88;100.00
20622;BME280;10470;42.670;23.354;2023-04-15T01:48:11;94067.59;;;8.91;100.00
20622;BME280;10470;42.670;23.354;2023-04-15T01:50:36;94083.91;;;9.01;100.00
20622;BME280;10470;42.670;23.354;2023-04-15T01:53:02;94078.94;;;8.81;100.00
20622;BME280;10470;42.670;23.354;2023-04-15T01:55:28;94079.81;;;8.68;100.00
20622;BME280;10470;42.670;23.354;2023-04-15T01:57:54;94086.00;;;8.78;100.00
20622;BME280;10470;42.670;23.354;2023-04-15T02:00:20;94095.97;;;8.81;100.00
20622;BME280;10470;42.670;23.354;2023-04-15T02:02:46;94091.59;;;8.74;100.00
20622;BME280;10470;42.670;23.354;2023-04-15T02:05:11;94078.31;;;8.58;100.00
20622;BME280;10470;42.670;23.354;2023-04-15T02:07:37;94085.25;;;8.59;100.00
20622;BME280;10470;42.670;23.354;2023-04-15T02:10:03;94082.22;;;8.66;100.00
20622;BME280;10470;42.670;23.354;2023-04-15T02:12:28;94080.59;;;8.78;100.00
20622;BME280;10470;42.670;23.354;2023-04-15T02:14:53;94081.94;;;8.73;100.00
20622;BME280;10470;42.670;23.354;2023-04-15T02:17:20;94075.13;;;8.69;100.00
20622;BME280;10470;42.670;23.354;2023-04-15T02:19:45;94077.56;;;8.67;100.00
20622;BME280;10470;42.670;23.354;2023-04-15T02:22:12;94067.00;;;8.78;100.00
20622;BME280;10470;42.670;23.354;2023-04-15T02:24:42;94069.56;;;8.63;100.00
20622;BME280;10470;42.670;23.354;2023-04-15T02:27:08;94062.94;;;8.64;100.00
20622;BME280;10470;42.670;23.354;2023-04-15T02:29:33;94057.63;;;8.42;100.00
20622;BME280;10470;42.670;23.354;2023-04-15T02:31:59;94068.94;;;8.50;100.00
20622;BME280;10470;42.670;23.354;2023-04-15T02:34:24;94070.72;;;8.35;100.00
20622;BME280;10470;42.670;23.354;2023-04-15T02:36:51;94052.63;;;8.31;100.00
20622;BME280;10470;42.670;23.354;2023-04-15T02:39:21;94060.59;;;8.35;100.00
20622;BME280;10470;42.670;23.354;2023-04-15T02:41:47;94071.91;;;8.15;100.00
20622;BME280;10470;42.670;23.354;2023-04-15T02:44:16;94068.91;;;8.22;100.00
20622;BME280;10470;42.670;23.354;2023-04-15T02:46:45;94064.50;;;8.25;100.00
20622;BME280;10470;42.670;23.354;2023-04-15T02:49:15;94076.38;;;8.09;100.00
20622;BME280;10470;42.670;23.354;2023-04-15T02:51:40;94049.81;;;7.85;100.00
20622;BME280;10470;42.670;23.354;2023-04-15T02:54:06;94070.00;;;7.94;100.00
20622;BME280;10470;42.670;23.354;2023-04-15T02:56:32;94077.72;;;7.95;100.00
20622;BME280;10470;42.670;23.354;2023-04-15T02:58:57;94085.63;;;7.80;100.00
20622;BME280;10470;42.670;23.354;2023-04-15T03:01:23;94100.25;;;7.74;100.00
20622;BME280;10470;42.670;23.354;2023-04-15T03:03:48;94089.56;;;7.79;100.00
20622;BME280;10470;42.670;23.354;2023-04-15T03:06:13;94081.22;;;7.64;100.00
20622;BME280;10470;42.670;23.354;2023-04-15T03:08:39;94087.31;;;7.47;100.00
20622;BME280;10470;42.670;23.354;2023-04-15T03:11:06;94085.56;;;7.31;100.00
20622;BME280;10470;42.670;23.354;2023-04-15T03:13:32;94090.38;;;7.27;100.00
20622;BME280;10470;42.670;23.354;2023-04-15T03:15:58;94098.75;;;7.19;100.00
20622;BME280;10470;42.670;23.354;2023-04-15T03:18:23;94114.69;;;6.95;100.00
20622;BME280;10470;42.670;23.354;2023-04-15T03:20:49;94112.72;;;7.18;100.00
20622;BME280;10470;42.670;23.354;2023-04-15T03:23:14;94112.41;;;6.94;100.00
20622;BME280;10470;42.670;23.354;2023-04-15T03:25:40;94108.31;;;6.89;100.00
20622;BME280;10470;42.670;23.354;2023-04-15T03:28:05;94116.31;;;7.15;100.00
20622;BME280;10470;42.670;23.354;2023-04-15T03:30:31;94116.56;;;7.08;100.00
20622;BME280;10470;42.670;23.354;2023-04-15T03:32:56;94121.75;;;6.93;100.00
20622;BME280;10470;42.670;23.354;2023-04-15T03:35:22;94133.44;;;6.90;100.00
20622;BME280;10470;42.670;23.354;2023-04-15T03:37:47;94127.38;;;6.51;100.00
20622;BME280;10470;42.670;23.354;2023-04-15T03:40:13;94114.09;;;6.78;100.00
20622;BME280;10470;42.670;23.354;2023-04-15T03:42:38;94132.88;;;6.95;100.00
20622;BME280;10470;42.670;23.354;2023-04-15T03:45:05;94124.41;;;6.71;100.00
20622;BME280;10470;42.670;23.354;2023-04-15T03:47:31;94128.84;;;6.99;100.00
20622;BME280;10470;42.670;23.354;2023-04-15T03:49:57;94139.31;;;6.88;100.00
20622;BME280;10470;42.670;23.354;2023-04-15T03:52:22;94141.41;;;7.06;100.00
20622;BME280;10470;42.670;23.354;2023-04-15T03:54:48;94159.28;;;7.04;100.00
20622;BME280;10470;42.670;23.354;2023-04-15T03:57:13;94134.88;;;6.82;100.00
20622;BME280;10470;42.670;23.354;2023-04-15T03:59:38;94153.34;;;6.96;100.00
20622;BME280;10470;42.670;23.354;2023-04-15T04:02:04;94146.94;;;7.03;100.00
20622;BME280;10470;42.670;23.354;2023-04-15T04:04:29;94138.69;;;7.06;100.00
20622;BME280;10470;42.670;23.354;2023-04-15T04:06:55;94145.00;;;7.03;100.00
20622;BME280;10470;42.670;23.354;2023-04-15T04:09:21;94154.63;;;7.04;100.00
20622;BME280;10470;42.670;23.354;2023-04-15T04:11:46;94160.41;;;7.15;100.00
20622;BME280;10470;42.670;23.354;2023-04-15T04:14:12;94154.56;;;7.17;100.00
20622;BME280;10470;42.670;23.354;2023-04-15T04:16:37;94155.13;;;7.34;100.00
20622;BME280;10470;42.670;23.354;2023-04-15T04:19:03;94158.16;;;7.14;100.00
20622;BME280;10470;42.670;23.354;2023-04-15T04:21:28;94159.66;;;7.15;100.00
20622;BME280;10470;42.670;23.354;2023-04-15T04:23:53;94154.56;;;7.17;100.00
20622;BME280;10470;42.670;23.354;2023-04-15T04:26:20;94148.06;;;7.36;100.00
20622;BME280;10470;42.670;23.354;2023-04-15T04:28:46;94159.59;;;7.50;100.00
20622;BME280;10470;42.670;23.354;2023-04-15T04:31:12;94152.47;;;7.43;100.00
20622;BME280;10470;42.670;23.354;2023-04-15T04:33:37;94158.22;;;7.45;100.00
20622;BME280;10470;42.670;23.354;2023-04-15T04:36:03;94160.97;;;7.54;100.00
20622;BME280;10470;42.670;23.354;2023-04-15T04:38:29;94156.81;;;7.62;100.00
20622;BME280;10470;42.670;23.354;2023-04-15T04:40:54;94156.13;;;7.71;100.00
20622;BME280;10470;42.670;23.354;2023-04-15T04:43:20;94156.88;;;7.72;100.00
20622;BME280;10470;42.670;23.354;2023-04-15T04:45:46;94164.59;;;7.82;100.00
20622;BME280;10470;42.670;23.354;2023-04-15T04:48:11;94170.34;;;7.84;100.00
20622;BME280;10470;42.670;23.354;2023-04-15T04:50:37;94173.28;;;7.99;100.00
20622;BME280;10470;42.670;23.354;2023-04-15T04:53:02;94174.94;;;7.97;100.00
20622;BME280;10470;42.670;23.354;2023-04-15T04:55:28;94176.25;;;7.92;100.00
20622;BME280;10470;42.670;23.354;2023-04-15T04:57:53;94175.50;;;8.32;100.00
20622;BME280;10470;42.670;23.354;2023-04-15T05:00:18;94183.41;;;8.39;100.00
20622;BME280;10470;42.670;23.354;2023-04-15T05:02:44;94180.25;;;8.50;100.00
20622;BME280;10470;42.670;23.354;2023-04-15T05:05:10;94193.25;;;8.46;100.00
20622;BME280;10470;42.670;23.354;2023-04-15T05:07:36;94199.88;;;8.54;100.00
20622;BME280;10470;42.670;23.354;2023-04-15T05:10:03;94203.41;;;8.73;100.00
20622;BME280;10470;42.670;23.354;2023-04-15T05:12:28;94194.03;;;8.65;100.00
20622;BME280;10470;42.670;23.354;2023-04-15T05:14:54;94207.91;;;8.67;100.00
20622;BME280;10470;42.670;23.354;2023-04-15T05:17:19;94221.19;;;8.65;100.00
20622;BME280;10470;42.670;23.354;2023-04-15T05:19:45;94223.00;;;8.59;100.00
20622;BME280;10470;42.670;23.354;2023-04-15T05:22:10;94225.13;;;8.73;100.00
20622;BME280;10470;42.670;23.354;2023-04-15T05:24:36;94224.41;;;8.91;100.00
20622;BME280;10470;42.670;23.354;2023-04-15T05:27:01;94226.25;;;9.03;100.00
20622;BME280;10470;42.670;23.354;2023-04-15T05:29:27;94224.44;;;9.09;100.00
20622;BME280;10470;42.670;23.354;2023-04-15T05:31:52;94199.81;;;8.85;100.00
20622;BME280;10470;42.670;23.354;2023-04-15T05:34:18;94218.38;;;8.96;100.00
20622;BME280;10470;42.670;23.354;2023-04-15T05:36:43;94213.84;;;9.02;100.00
20622;BME280;10470;42.670;23.354;2023-04-15T05:39:08;94227.19;;;9.18;100.00
20622;BME280;10470;42.670;23.354;2023-04-15T05:41:34;94216.28;;;9.09;100.00
20622;BME280;10470;42.670;23.354;2023-04-15T05:44:00;94224.59;;;9.33;100.00
20622;BME280;10470;42.670;23.354;2023-04-15T05:46:26;94229.56;;;9.26;100.00
20622;BME280;10470;42.670;23.354;2023-04-15T05:48:51;94222.47;;;9.47;100.00
20622;BME280;10470;42.670;23.354;2023-04-15T05:51:17;94217.50;;;9.73;100.00
20622;BME280;10470;42.670;23.354;2023-04-15T05:53:42;94226.69;;;9.84;100.00
20622;BME280;10470;42.670;23.354;2023-04-15T05:56:08;94226.38;;;9.92;100.00
20622;BME280;10470;42.670;23.354;2023-04-15T05:58:33;94233.19;;;9.96;100.00
20622;BME280;10470;42.670;23.354;2023-04-15T06:00:58;94236.63;;;10.06;100.00
20622;BME280;10470;42.670;23.354;2023-04-15T06:03:24;94243.16;;;9.90;100.00
20622;BME280;10470;42.670;23.354;2023-04-15T06:05:50;94246.66;;;9.81;100.00
20622;BME280;10470;42.670;23.354;2023-04-15T06:08:15;94252.06;;;10.09;100.00
20622;BME280;10470;42.670;23.354;2023-04-15T06:10:41;94252.00;;;10.18;100.00
20622;BME280;10470;42.670;23.354;2023-04-15T06:13:07;94259.28;;;10.31;100.00
20622;BME280;10470;42.670;23.354;2023-04-15T06:15:32;94251.50;;;10.47;100.00
20622;BME280;10470;42.670;23.354;2023-04-15T06:17:58;94250.72;;;10.56;100.00
20622;BME280;10470;42.670;23.354;2023-04-15T06:20:23;94259.00;;;10.62;100.00
20622;BME280;10470;42.670;23.354;2023-04-15T06:22:49;94259.75;;;10.62;100.00
20622;BME280;10470;42.670;23.354;2023-04-15T06:25:15;94261.25;;;10.63;100.00
20622;BME280;10470;42.670;23.354;2023-04-15T06:27:40;94269.59;;;10.69;100.00
20622;BME280;10470;42.670;23.354;2023-04-15T06:30:06;94270.63;;;10.71;100.00
20622;BME280;10470;42.670;23.354;2023-04-15T06:32:32;94276.28;;;10.59;100.00
20622;BME280;10470;42.670;23.354;2023-04-15T06:34:58;94282.53;;;10.83;100.00
20622;BME280;10470;42.670;23.354;2023-04-15T06:37:24;94283.84;;;10.64;100.00
20622;BME280;10470;42.670;23.354;2023-04-15T06:39:49;94278.31;;;10.82;100.00
20622;BME280;10470;42.670;23.354;2023-04-15T06:42:15;94283.84;;;10.64;100.00
20622;BME280;10470;42.670;23.354;2023-04-15T06:44:41;94281.34;;;10.84;100.00
20622;BME280;10470;42.670;23.354;2023-04-15T06:47:06;94283.81;;;10.97;100.00
20622;BME280;10470;42.670;23.354;2023-04-15T06:49:33;94291.28;;;11.21;100.00
20622;BME280;10470;42.670;23.354;2023-04-15T06:51:59;94297.22;;;11.10;100.00
20622;BME280;10470;42.670;23.354;2023-04-15T06:54:25;94294.75;;;11.45;100.00
20622;BME280;10470;42.670;23.354;2023-04-15T06:56:51;94301.56;;;11.50;100.00
20622;BME280;10470;42.670;23.354;2023-04-15T06:59:16;94291.66;;;11.28;100.00
20622;BME280;10470;42.670;23.354;2023-04-15T07:01:42;94292.69;;;11.16;100.00
20622;BME280;10470;42.670;23.354;2023-04-15T07:04:07;94292.34;;;11.47;100.00
20622;BME280;10470;42.670;23.354;2023-04-15T07:06:33;94296.09;;;11.50;100.00
20622;BME280;10470;42.670;23.354;2023-04-15T07:09:00;94296.41;;;11.52;100.00
20622;BME280;10470;42.670;23.354;2023-04-15T07:11:26;94295.38;;;11.64;100.00
20622;BME280;10470;42.670;23.354;2023-04-15T07:13:51;94294.34;;;11.62;100.00
20622;BME280;10470;42.670;23.354;2023-04-15T07:16:17;94295.22;;;11.82;100.00
20622;BME280;10470;42.670;23.354;2023-04-15T07:18:42;94302.81;;;11.64;100.00
20622;BME280;10470;42.670;23.354;2023-04-15T07:21:08;94303.03;;;12.14;100.00
20622;BME280;10470;42.670;23.354;2023-04-15T07:23:34;94302.59;;;12.30;100.00
20622;BME280;10470;42.670;23.354;2023-04-15T07:25:59;94299.00;;;12.39;100.00
20622;BME280;10470;42.670;23.354;2023-04-15T07:28:25;94302.78;;;12.56;100.00
20622;BME280;10470;42.670;23.354;2023-04-15T07:30:51;94308.63;;;12.49;100.00
20622;BME280;10470;42.670;23.354;2023-04-15T07:33:17;94309.75;;;12.57;100.00
20622;BME280;10470;42.670;23.354;2023-04-15T07:35:42;94317.56;;;12.79;100.00
20622;BME280;10470;42.670;23.354;2023-04-15T07:38:07;94303.91;;;12.50;100.00
20622;BME280;10470;42.670;23.354;2023-04-15T07:40:33;94305.03;;;12.58;100.00
20622;BME280;10470;42.670;23.354;2023-04-15T07:42:58;94299.38;;;12.46;100.00
20622;BME280;10470;42.670;23.354;2023-04-15T07:45:24;94298.47;;;12.35;100.00
20622;BME280;10470;42.670;23.354;2023-04-15T07:47:49;94303.25;;;12.55;100.00
20622;BME280;10470;42.670;23.354;2023-04-15T07:50:16;94312.69;;;12.68;100.00
20622;BME280;10470;42.670;23.354;2023-04-15T07:52:42;94317.53;;;12.94;100.00
20622;BME280;10470;42.670;23.354;2023-04-15T07:55:08;94320.97;;;13.09;100.00
20622;BME280;10470;42.670;23.354;2023-04-15T07:57:35;94326.56;;;13.00;100.00
20622;BME280;10470;42.670;23.354;2023-04-15T08:00:01;94321.34;;;13.17;100.00
20622;BME280;10470;42.670;23.354;2023-04-15T08:02:30;94332.84;;;13.36;100.00
20622;BME280;10470;42.670;23.354;2023-04-15T08:04:56;94310.75;;;13.25;100.00
20622;BME280;10470;42.670;23.354;2023-04-15T08:07:22;94316.53;;;13.27;100.00
20622;BME280;10470;42.670;23.354;2023-04-15T08:09:47;94318.88;;;13.34;100.00
20622;BME280;10470;42.670;23.354;2023-04-15T08:12:13;94316.09;;;13.69;100.00
20622;BME280;10470;42.670;23.354;2023-04-15T08:14:39;94325.19;;;13.81;100.00
20622;BME280;10470;42.670;23.354;2023-04-15T08:17:04;94327.94;;;14.02;100.00
20622;BME280;10470;42.670;23.354;2023-04-15T08:19:30;94324.34;;;14.16;97.88
20622;BME280;10470;42.670;23.354;2023-04-15T08:21:56;94323.41;;;14.19;94.54
20622;BME280;10470;42.670;23.354;2023-04-15T08:24:22;94320.00;;;14.30;99.14
20622;BME280;10470;42.670;23.354;2023-04-15T08:26:48;94321.47;;;14.51;96.41
20622;BME280;10470;42.670;23.354;2023-04-15T08:29:13;94327.81;;;14.63;92.02
20622;BME280;10470;42.670;23.354;2023-04-15T08:31:39;94328.84;;;14.97;88.58
20622;BME280;10470;42.670;23.354;2023-04-15T08:34:05;94313.75;;;14.29;84.05
20622;BME280;10470;42.670;23.354;2023-04-15T08:36:30;94310.72;;;15.11;83.18
20622;BME280;10470;42.670;23.354;2023-04-15T08:38:57;94319.59;;;15.32;79.99
20622;BME280;10470;42.670;23.354;2023-04-15T08:41:25;94307.28;;;15.16;78.42
20622;BME280;10470;42.670;23.354;2023-04-15T08:44:01;94311.78;;;15.19;76.28
20622;BME280;10470;42.670;23.354;2023-04-15T08:46:29;94302.56;;;14.85;74.27
20622;BME280;10470;42.670;23.354;2023-04-15T08:48:57;94302.56;;;15.22;76.59
20622;BME280;10470;42.670;23.354;2023-04-15T08:51:23;94303.47;;;15.51;74.94
20622;BME280;10470;42.670;23.354;2023-04-15T08:53:49;94304.00;;;15.55;72.06
20622;BME280;10470;42.670;23.354;2023-04-15T08:56:15;94306.19;;;15.94;70.96
20622;BME280;10470;42.670;23.354;2023-04-15T08:58:45;94305.72;;;15.52;73.32
20622;BME280;10470;42.670;23.354;2023-04-15T09:01:11;94298.13;;;15.79;74.17
20622;BME280;10470;42.670;23.354;2023-04-15T09:03:38;94292.56;;;15.62;72.38
20622;BME280;10470;42.670;23.354;2023-04-15T09:06:05;94295.09;;;15.71;68.97
20622;BME280;10470;42.670;23.354;2023-04-15T09:08:31;94292.94;;;15.92;66.22
20622;BME280;10470;42.670;23.354;2023-04-15T09:10:58;94304.34;;;15.74;64.51
20622;BME280;10470;42.670;23.354;2023-04-15T09:13:24;94299.97;;;15.99;63.63
20622;BME280;10470;42.670;23.354;2023-04-15T09:15:49;94300.78;;;16.28;61.61
20622;BME280;10470;42.670;23.354;2023-04-15T09:18:32;94290.28;;;15.61;59.96
20622;BME280;10470;42.670;23.354;2023-04-15T09:21:09;94282.16;;;15.72;58.43
20622;BME280;10470;42.670;23.354;2023-04-15T09:23:40;94284.22;;;16.05;59.33
20622;BME280;10470;42.670;23.354;2023-04-15T09:26:06;94285.81;;;16.34;58.13
20622;BME280;10470;42.670;23.354;2023-04-15T09:28:32;94285.59;;;15.67;58.10
20622;BME280;10470;42.670;23.354;2023-04-15T09:31:05;94293.13;;;15.72;57.67
20622;BME280;10470;42.670;23.354;2023-04-15T09:33:31;94293.66;;;15.82;57.23
20622;BME280;10470;42.670;23.354;2023-04-15T09:36:04;94281.59;;;16.45;56.54
20622;BME280;10470;42.670;23.354;2023-04-15T09:38:30;94282.84;;;16.66;56.41
20622;BME280;10470;42.670;23.354;2023-04-15T09:40:56;94286.56;;;16.35;56.68
20622;BME280;10470;42.670;23.354;2023-04-15T09:43:22;94290.06;;;16.47;56.39
20622;BME280;10470;42.670;23.354;2023-04-15T09:45:51;94291.59;;;16.65;56.00
20622;BME280;10470;42.670;23.354;2023-04-15T09:48:22;94294.34;;;16.98;55.00
20622;BME280;10470;42.670;23.354;2023-04-15T09:50:49;94289.59;;;16.99;55.91
20622;BME280;10470;42.670;23.354;2023-04-15T09:53:24;94296.59;;;16.66;55.54
20622;BME280;10470;42.670;23.354;2023-04-15T09:55:51;94301.53;;;16.23;55.82
20622;BME280;10470;42.670;23.354;2023-04-15T09:58:18;94308.09;;;16.76;55.21
20622;BME280;10470;42.670;23.354;2023-04-15T10:00:47;94304.09;;;17.22;54.05
20622;BME280;10470;42.670;23.354;2023-04-15T10:03:21;94303.06;;;17.36;53.55
20622;BME280;10470;42.670;23.354;2023-04-15T10:05:48;94297.56;;;17.36;53.30
20622;BME280;10470;42.670;23.354;2023-04-15T10:08:19;94295.31;;;17.46;52.79
20622;BME280;10470;42.670;23.354;2023-04-15T10:10:46;94290.53;;;17.35;52.02
20622;BME280;10470;42.670;23.354;2023-04-15T10:13:17;94299.88;;;16.87;52.16
20622;BME280;10470;42.670;23.354;2023-04-15T10:15:44;94291.63;;;17.10;51.28
20622;BME280;10470;42.670;23.354;2023-04-15T10:18:18;94281.84;;;16.75;48.11
20622;BME280;10470;42.670;23.354;2023-04-15T10:20:45;94274.53;;;17.22;46.68
20622;BME280;10470;42.670;23.354;2023-04-15T10:23:12;94273.00;;;17.50;46.36
20622;BME280;10470;42.670;23.354;2023-04-15T10:25:37;94265.25;;;17.42;45.71
20622;BME280;10470;42.670;23.354;2023-04-15T10:28:05;94260.75;;;17.39;45.71
20622;BME280;10470;42.670;23.354;2023-04-15T10:30:32;94252.41;;;17.67;45.78
20622;BME280;10470;42.670;23.354;2023-04-15T10:32:58;94257.19;;;17.56;45.85
20622;BME280;10470;42.670;23.354;2023-04-15T10:35:25;94265.91;;;17.71;45.53
20622;BME280;10470;42.670;23.354;2023-04-15T10:37:50;94274.53;;;17.34;45.65
20622;BME280;10470;42.670;23.354;2023-04-15T10:40:24;94277.78;;;17.43;45.75
20622;BME280;10470;42.670;23.354;2023-04-15T10:42:59;94266.75;;;17.43;45.58
20622;BME280;10470;42.670;23.354;2023-04-15T10:45:27;94264.28;;;17.34;45.03
20622;BME280;10470;42.670;23.354;2023-04-15T10:47:56;94260.13;;;17.80;45.26
20622;BME280;10470;42.670;23.354;2023-04-15T10:50:25;94259.16;;;17.72;46.61
20622;BME280;10470;42.670;23.354;2023-04-15T10:52:51;94250.28;;;17.96;47.38
20622;BME280;10470;42.670;23.354;2023-04-15T10:55:35;94261.69;;;18.17;47.09
20622;BME280;10470;42.670;23.354;2023-04-15T10:58:01;94257.78;;;18.01;46.57
20622;BME280;10470;42.670;23.354;2023-04-15T11:00:29;94258.41;;;18.60;46.53
20622;BME280;10470;42.670;23.354;2023-04-15T11:02:56;94257.63;;;19.26;45.30
20622;BME280;10470;42.670;23.354;2023-04-15T11:05:49;94260.00;;;19.59;44.37
20622;BME280;10470;42.670;23.354;2023-04-15T11:08:15;94263.50;;;19.84;43.97
20622;BME280;10470;42.670;23.354;2023-04-15T11:15:40;94247.97;;;19.57;44.27
20622;BME280;10470;42.670;23.354;2023-04-15T11:20:59;94258.44;;;19.89;44.60
20622;BME280;10470;42.670;23.354;2023-04-15T11:23:41;94252.91;;;19.70;43.82
20622;BME280;10470;42.670;23.354;2023-04-15T11:26:11;94243.94;;;20.01;42.45
20622;BME280;10470;42.670;23.354;2023-04-15T11:28:38;94255.03;;;20.71;43.26
20622;BME280;10470;42.670;23.354;2023-04-15T11:31:13;94255.91;;;19.66;43.47
20622;BME280;10470;42.670;23.354;2023-04-15T11:33:58;94259.47;;;20.23;44.58
20622;BME280;10470;42.670;23.354;2023-04-15T11:36:30;94259.09;;;19.51;40.24
20622;BME280;10470;42.670;23.354;2023-04-15T11:38:57;94254.72;;;20.24;39.51
20622;BME280;10470;42.670;23.354;2023-04-15T11:41:23;94257.94;;;19.90;37.96
20622;BME280;10470;42.670;23.354;2023-04-15T11:43:50;94252.84;;;18.96;37.02
20622;BME280;10470;42.670;23.354;2023-04-15T11:46:16;94245.97;;;18.48;36.43
20622;BME280;10470;42.670;23.354;2023-04-15T11:48:43;94234.59;;;19.17;36.60
20622;BME280;10470;42.670;23.354;2023-04-15T11:51:10;94239.75;;;19.95;36.59
20622;BME280;10470;42.670;23.354;2023-04-15T11:53:47;94230.63;;;19.13;36.93
20622;BME280;10470;42.670;23.354;2023-04-15T11:56:17;94241.13;;;18.54;38.01
20622;BME280;10470;42.670;23.354;2023-04-15T11:58:43;94236.09;;;18.94;37.87
20622;BME280;10470;42.670;23.354;2023-04-15T12:01:10;94239.19;;;19.34;37.39
20622;BME280;10470;42.670;23.354;2023-04-15T12:03:40;94227.75;;;18.99;37.89
20622;BME280;10470;42.670;23.354;2023-04-15T12:06:18;94239.63;;;18.89;37.62
20622;BME280;10470;42.670;23.354;2023-04-15T12:11:33;94235.78;;;18.97;36.09
20622;BME280;10470;42.670;23.354;2023-04-15T12:16:47;94232.56;;;18.93;36.59
20622;BME280;10470;42.670;23.354;2023-04-15T12:19:22;94232.56;;;19.42;36.33
20622;BME280;10470;42.670;23.354;2023-04-15T12:21:48;94235.13;;;19.40;35.84
20622;BME280;10470;42.670;23.354;2023-04-15T12:24:14;94236.75;;;19.74;35.64
20622;BME280;10470;42.670;23.354;2023-04-15T12:26:45;94232.69;;;20.50;35.27
20622;BME280;10470;42.670;23.354;2023-04-15T12:29:11;94235.38;;;20.56;35.64
20622;BME280;10470;42.670;23.354;2023-04-15T12:31:46;94236.13;;;20.89;35.44
20622;BME280;10470;42.670;23.354;2023-04-15T12:34:13;94237.97;;;19.54;36.61
20622;BME280;10470;42.670;23.354;2023-04-15T12:36:39;94249.31;;;19.94;36.45
20622;BME280;10470;42.670;23.354;2023-04-15T12:39:04;94236.63;;;19.85;36.83
20622;BME280;10470;42.670;23.354;2023-04-15T12:41:31;94240.72;;;19.78;36.67
20622;BME280;10470;42.670;23.354;2023-04-15T12:43:56;94244.66;;;19.39;36.60
20622;BME280;10470;42.670;23.354;2023-04-15T12:46:22;94249.75;;;19.79;36.58
20622;BME280;10470;42.670;23.354;2023-04-15T12:48:47;94248.84;;;21.11;36.01
20622;BME280;10470;42.670;23.354;2023-04-15T12:51:13;94240.56;;;19.71;36.98
20622;BME280;10470;42.670;23.354;2023-04-15T12:53:38;94245.50;;;19.53;37.73
20622;BME280;10470;42.670;23.354;2023-04-15T12:56:04;94254.84;;;19.94;37.38
20622;BME280;10470;42.670;23.354;2023-04-15T12:58:30;94247.97;;;19.81;36.97